Van Dyne, Wisconsin
Current Conditions -  °F | °C
As of 8:53 PM on Tuesday 21 Oct 2014 (Local Time) from KOSH Reporting Station
Clear Clear  
Wind Chill: 44°   Ceiling: Unl
Heat Index: 44°   Visibility: 10mi
Dew Point: 36°   Wind: 3mph
Humidity: 73%   Direction: 120°ESE
Pressure: 30.26"   Gusts: NA
Location:  43.89°N, 88.5°W
Report Text: KOSH 220153Z 12003KT 10SM CLR 07/02 A3026 RMK AO2 SLP254 T00670022
Loading
Personal Weather Stations






























Interactive Weather Map
Tropical Storm Tracking
New forecast layout! Learn more

10-Day Weather Forecast

Advertisements
Track Severe Weather on mobile